Flight Track Log - Related Links

Times and Time Zones

All times are in EDT time to prevent confusion due to time zone crossing. See the ASQ5740 flight status page for this flight to view local times or setup timezone preferences in your user account.

Time Position Orientation Groundspeed Altitude Reporting Facility
EDT Latitude Longitude Course Direction KTS MPH feet Rate Location/Type
Mon 02:52:34 PM 32.9322 -80.0586 13° North 207 238 3,600  Level Jacksonville Center
Mon 02:53:34 PM 33.0067 -80.0267 20° North 270 311 5,400 2,100 Climbing Jacksonville Center
Mon 02:54:00 PM 33.2729 -79.9221 North  Level FlightAware Approximate
Mon 02:54:34 PM 33.0750 -80.0072 13° North 275 316 7,800  Level Jacksonville Center
Mon 02:55:00 PM 33.3675 -79.8832 North  Level FlightAware Approximate
Mon 02:55:34 PM 33.1517 -79.9797 17° North 280 322 10,100  Level Jacksonville Center
Mon 02:56:00 PM 33.4665 -79.8620 13° North  Level FlightAware Approximate
Mon 02:56:34 PM 33.2342 -79.9425 21° North 293 337 11,700  Level Jacksonville Center
Mon 02:57:00 PM 33.5643 -79.8340 13° North  Level FlightAware Approximate
Mon 02:57:34 PM 33.3208 -79.8897 27° Northeast 319 367 13,100  Level Jacksonville Center
Mon 02:58:34 PM 33.4092 -79.8394 25° Northeast 339 390 15,200 1,800 Climbing Jacksonville Center
Mon 02:59:34 PM 33.5022 -79.7989 20° North 344 396 16,700 1,500 Climbing Jacksonville Center
Mon 03:00:34 PM 33.6042 -79.7881 North 344 396 18,200 1,250 Climbing Jacksonville Center
Mon 03:01:34 PM 33.7081 -79.7669 10° North 364 419 19,200 1,000 Climbing Jacksonville Center
Mon 03:02:34 PM 33.8139 -79.7456 10° North 375 432 20,200 1,000 Climbing Jacksonville Center
Mon 03:03:34 PM 33.9217 -79.7217 10° North 380 437 21,200 1,000 Climbing Jacksonville Center
Mon 03:04:34 PM 34.0297 -79.6978 10° North 391 450 22,200 850 Climbing Jacksonville Center
Mon 03:05:34 PM 34.1417 -79.6761 North 391 450 22,900 650 Climbing Jacksonville Center
Mon 03:06:34 PM 34.2597 -79.6364 16° North 402 463 23,500 549 Climbing Jacksonville Center
Mon 03:08:07 PM 34.4253 -79.5597 21° North 425 489 24,300 477 Climbing Washington Center
Mon 03:09:05 PM 34.5400 -79.4972 24° Northeast 437 503 24,700 504 Climbing Washington Center
Mon 03:10:06 PM 34.6586 -79.4375 22° Northeast 448 516 25,300 545 Climbing Washington Center
Mon 03:11:06 PM 34.7756 -79.3722 25° Northeast 453 521 25,800 496 Climbing Washington Center
Mon 03:12:07 PM 34.8964 -79.3094 23° Northeast 453 521 26,300 496 Climbing Washington Center
Mon 03:13:07 PM 35.0172 -79.2464 23° Northeast 463 533 26,800 350 Climbing Washington Center
Mon 03:14:07 PM 35.1361 -79.1833 23° Northeast 463 533 27,000 101 Climbing Washington Center
Mon 03:15:06 PM 35.2633 -79.1178 23° Northeast 468 539 27,000  Level Washington Center
Mon 03:16:06 PM 35.3883 -79.0519 23° Northeast 480 552 27,000  Level Washington Center
Mon 03:17:05 PM 35.5114 -78.9833 24° Northeast 480 552 27,000  Level Washington Center
Mon 03:18:05 PM 35.6278 -78.9192 24° Northeast 470 541 27,000  Level Washington Center
Mon 03:19:06 PM 35.7442 -78.8600 22° Northeast 458 527 27,000  Level Washington Center
Mon 03:20:04 PM 35.8672 -78.7908 24° Northeast 446 513 27,000  Level Washington Center
Mon 03:21:05 PM 35.9772 -78.7311 24° Northeast 441 507 27,000  Level Washington Center
Mon 03:22:05 PM 36.0811 -78.6683 26° Northeast 429 494 27,000  Level Washington Center
Mon 03:23:06 PM 36.1889 -78.6083 24° Northeast 424 488 27,000  Level Washington Center
Mon 03:24:05 PM 36.2969 -78.5481 24° Northeast 424 488 27,000  Level Washington Center
Mon 03:25:05 PM 36.4028 -78.4875 25° Northeast 424 488 27,000  Level Washington Center
Mon 03:26:05 PM 36.5086 -78.4242 26° Northeast 424 488 27,000  Level Washington Center
Mon 03:27:06 PM 36.6164 -78.3633 24° Northeast 419 482 27,000  Level Washington Center
Mon 03:28:07 PM 36.7200 -78.3022 25° Northeast 419 482 27,000  Level Washington Center
Mon 03:29:05 PM 36.8236 -78.2411 25° Northeast 414 476 27,000 -403 Level Washington Center
Mon 03:30:06 PM 36.9314 -78.1797 24° Northeast 414 476 26,200 -885 Descending Washington Center
Mon 03:31:07 PM 37.0392 -78.1183 24° Northeast 414 476 25,200 -992 Descending Washington Center
Mon 03:32:07 PM 37.1364 -78.0592 26° Northeast 401 461 24,200 -1,017 Descending Washington Center
Mon 03:33:05 PM 37.2375 -78.0050 23° Northeast 395 455 23,200 -1,008 Descending Washington Center
Mon 03:34:06 PM 37.3306 -77.9450 27° Northeast 383 441 22,200 -590 Descending Washington Center
Mon 03:35:07 PM 37.4233 -77.8931 24° Northeast 373 429 22,000 -102 Descending Washington Center
Mon 03:36:04 PM 37.5161 -77.8356 26° Northeast 367 422 22,000  Level Washington Center
Mon 03:37:05 PM 37.6089 -77.7808 25° Northeast 362 417 22,000 -645 Level Washington Center
Mon 03:38:05 PM 37.7081 -77.7286 23° Northeast 362 417 20,700 -1,636 Descending Washington Center
Mon 03:39:06 PM 37.7661 -77.6172 57° Northeast 362 417 18,700 -2,033 Descending Washington Center
Mon 03:40:06 PM 37.8483 -77.5642 27° Northeast 336 387 16,600 -1,339 Descending Washington Center
Mon 03:41:07 PM 37.9403 -77.5614 North 317 365 16,000 -298 Descending Washington Center
Mon 03:42:07 PM 38.0278 -77.5556 North 312 359 16,000  Level Washington Center
Mon 03:43:06 PM 38.1028 -77.5631 356° North 307 353 16,000 -202 Level Washington Center
Mon 03:44:06 PM 38.1372 -77.6350 301° West 247 284 15,600 -694 Descending Washington Center
Mon 03:45:07 PM 38.1028 -77.6975 235° Southwest 184 212 14,600 -992 Descending Washington Center
Mon 03:46:07 PM 38.0314 -77.7114 189° South 169 194 13,600 -814 Descending Washington Center
Mon 03:47:05 PM 37.9586 -77.7092 179° South 200 230 13,000 -303 Descending Washington Center
Mon 03:48:06 PM 37.8958 -77.7153 184° South 232 267 13,000  Level Washington Center
Mon 03:49:07 PM 37.8358 -77.6822 156° South 239 275 13,000 -303 Level Washington Center
Mon 03:50:05 PM 37.8417 -77.5981 85° East 197 227 12,400 -814 Descending Washington Center
Mon 03:51:05 PM 37.9172 -77.5556 24° Northeast 184 212 11,400 -1,000 Descending Washington Center
Mon 03:52:05 PM 37.9972 -77.5181 20° North 235 270 10,400 -694 Descending Washington Center
Mon 03:53:06 PM 38.0769 -77.4911 15° North 262 302 10,000 -197 Descending Washington Center
Mon 03:54:07 PM 38.1567 -77.4586 18° North 284 327 10,000 -303 Level Washington Center
Mon 03:55:05 PM 38.2381 -77.4503 North 290 334 9,400 -763 Descending Washington Center
Mon 03:56:05 PM 38.3153 -77.4519 359° North 285 328 8,500 -744 Descending Washington Center
Mon 03:57:06 PM 38.3778 -77.4536 359° North 254 292 7,900 -787 Descending Washington Center
Mon 03:58:07 PM 38.4339 -77.4578 357° North 222 255 6,900 -908 Descending Washington Center
Mon 03:59:05 PM 38.4839 -77.4617 357° North 198 228 6,100 -504 Descending Washington Center
Mon 04:00:06 PM 38.5361 -77.4628 359° North 184 212 5,900 -49 Descending Washington Center
Mon 04:01:07 PM 38.5839 -77.4642 359° North 179 206 6,000 -480 Climbing Washington Center
Mon 04:01:46 PM 38.6333 -77.4667 358° North 179 206 5,100 -638 Descending Potomac TRACON
Mon 04:02:41 PM 38.6667 -77.4667 360° North 173 199 5,000 -209 Descending Potomac TRACON
Mon 04:03:41 PM 38.7167 -77.4667 360° North 180 207 4,700 -714 Descending Potomac TRACON
Mon 04:04:47 PM 38.7667 -77.4667 360° North 164 189 3,500 -942 Descending Potomac TRACON
Mon 04:05:42 PM 38.8167 -77.4667 360° North 148 170 2,800 -724 Descending Potomac TRACON
Mon 04:06:43 PM 38.8500 -77.4667 360° North 147 169 2,100 -689 Descending Potomac TRACON

Login

Don't have an account? Register now (free) for customized features, flight alerts, and more!